Time;durP1;ratioP1;P1;durP2;ratioP2;P2;SDS_P1;SDS_P2;PMS_P1;PMS_P2;Temp;Humidity;BMP_temperature;BMP_pressure;BME280_temperature;BME280_humidity;BME280_pressure;Samples;Min_cycle;Max_cycle;Signal;HPM_P1;HPM_P2
2023/10/23 00:01:22;;;;;;;11.90;6.50;;;;;;;;;;5070174;28;20220;-81
2023/10/23 00:03:49;;;;;;;11.63;6.87;;;;;;;;;;5071015;28;20306;-80
2023/10/23 00:06:16;;;;;;;6.33;5.17;;;;;;;;;;5070356;28;20676;-81
2023/10/23 00:08:42;;;;;;;9.70;6.40;;;;;;;;;;5061591;28;20202;-81
2023/10/23 00:11:09;;;;;;;10.20;6.20;;;;;;;;;;5070475;28;20197;-81
2023/10/23 00:13:37;;;;;;;11.33;5.93;;;;;;;;;;5070686;28;20235;-81
2023/10/23 00:16:05;;;;;;;14.23;6.10;;;;;;;;;;5044749;28;20204;-81
2023/10/23 00:18:32;;;;;;;8.47;5.90;;;;;;;;;;5070542;28;20201;-81
2023/10/23 00:20:59;;;;;;;6.33;4.70;;;;;;;;;;5070417;28;20201;-81
2023/10/23 00:23:25;;;;;;;7.37;5.70;;;;;;;;;;5069602;28;20228;-81
2023/10/23 00:25:52;;;;;;;7.67;6.07;;;;;;;;;;5070926;28;20204;-81
2023/10/23 00:28:19;;;;;;;11.27;5.43;;;;;;;;;;5070305;28;20563;-81
2023/10/23 00:30:47;;;;;;;10.17;6.00;;;;;;;;;;5070541;28;20591;-81
2023/10/23 00:33:14;;;;;;;10.43;6.30;;;;;;;;;;5070371;28;20212;-81
2023/10/23 00:35:41;;;;;;;14.77;6.43;;;;;;;;;;5070688;28;20201;-80
2023/10/23 00:38:07;;;;;;;9.97;5.87;;;;;;;;;;5070180;28;20217;-81
2023/10/23 00:40:34;;;;;;;8.60;5.43;;;;;;;;;;5070543;28;20630;-80
2023/10/23 00:43:12;;;;;;;8.10;5.07;;;;;;;;;;5069658;28;20251;-80
2023/10/23 00:45:42;;;;;;;10.63;5.93;;;;;;;;;;5070398;28;20745;-80
2023/10/23 00:48:10;;;;;;;9.57;5.83;;;;;;;;;;5070123;28;20197;-80
2023/10/23 00:50:37;;;;;;;11.93;6.10;;;;;;;;;;5070359;28;20233;-80
2023/10/23 00:53:04;;;;;;;10.00;5.03;;;;;;;;;;5069805;28;20227;-80
2023/10/23 00:55:31;;;;;;;9.47;5.50;;;;;;;;;;5070394;28;20204;-80
2023/10/23 00:57:58;;;;;;;10.90;6.33;;;;;;;;;;5069726;28;20193;-80
2023/10/23 01:00:25;;;;;;;10.17;5.03;;;;;;;;;;5070522;28;20205;-81
2023/10/23 01:02:52;;;;;;;10.70;5.73;;;;;;;;;;5070032;28;20224;-80
2023/10/23 01:05:20;;;;;;;8.50;5.13;;;;;;;;;;5070039;28;20584;-81
2023/10/23 01:07:47;;;;;;;7.63;5.30;;;;;;;;;;5069670;28;20202;-81
2023/10/23 01:10:14;;;;;;;6.40;5.10;;;;;;;;;;5070290;28;20217;-81
2023/10/23 01:12:41;;;;;;;9.73;4.90;;;;;;;;;;5069902;28;20213;-81
2023/10/23 01:15:08;;;;;;;13.70;5.77;;;;;;;;;;5070381;28;20644;-81
2023/10/23 01:17:35;;;;;;;7.83;4.87;;;;;;;;;;5070243;28;20224;-81
2023/10/23 01:20:04;;;;;;;9.97;6.03;;;;;;;;;;5069915;28;20570;-80
2023/10/23 01:22:32;;;;;;;9.30;5.60;;;;;;;;;;5069827;28;20283;-80
2023/10/23 01:24:59;;;;;;;8.70;5.97;;;;;;;;;;5069603;28;20205;-81
2023/10/23 01:27:27;;;;;;;10.73;5.10;;;;;;;;;;5043525;28;20201;-81
2023/10/23 01:29:54;;;;;;;13.10;5.67;;;;;;;;;;5072767;28;20246;-81
2023/10/23 01:32:21;;;;;;;10.97;5.50;;;;;;;;;;5073968;28;20220;-81
2023/10/23 01:34:48;;;;;;;10.63;5.33;;;;;;;;;;5072631;28;20201;-81
2023/10/23 01:37:14;;;;;;;8.43;5.33;;;;;;;;;;5073639;28;20197;-80
2023/10/23 01:39:41;;;;;;;9.10;5.17;;;;;;;;;;5073559;28;20205;-81
2023/10/23 01:42:08;;;;;;;9.17;4.93;;;;;;;;;;5073838;28;20209;-81
2023/10/23 01:44:36;;;;;;;13.97;6.53;;;;;;;;;;5072603;28;20239;-81
2023/10/23 01:47:03;;;;;;;7.90;5.77;;;;;;;;;;5073485;28;20197;-80
2023/10/23 01:49:29;;;;;;;10.73;6.37;;;;;;;;;;5073356;28;20301;-81
2023/10/23 01:51:56;;;;;;;7.43;5.40;;;;;;;;;;5073306;28;20254;-81
2023/10/23 01:54:23;;;;;;;9.17;6.20;;;;;;;;;;5072253;28;20219;-81
2023/10/23 01:56:50;;;;;;;11.33;6.40;;;;;;;;;;5073262;28;20262;-81
2023/10/23 01:59:16;;;;;;;7.93;5.07;;;;;;;;;;5072742;28;20201;-81
2023/10/23 02:01:45;;;;;;;14.63;5.47;;;;;;;;;;5073193;28;20193;-80
2023/10/23 02:04:11;;;;;;;8.67;5.37;;;;;;;;;;5073182;28;20240;-80
2023/10/23 02:06:38;;;;;;;11.40;5.77;;;;;;;;;;5072380;28;20683;-80
2023/10/23 02:09:05;;;;;;;13.87;6.33;;;;;;;;;;5072610;28;20259;-81
2023/10/23 02:11:32;;;;;;;10.60;5.40;;;;;;;;;;5073230;28;20201;-81
2023/10/23 02:13:59;;;;;;;10.67;6.10;;;;;;;;;;5072619;28;20209;-81
2023/10/23 02:16:25;;;;;;;13.97;6.47;;;;;;;;;;5072232;28;20254;-80
2023/10/23 02:18:54;;;;;;;12.90;5.73;;;;;;;;;;5072759;28;20201;-80
2023/10/23 02:21:20;;;;;;;8.83;6.07;;;;;;;;;;5072967;28;20201;-80
2023/10/23 02:23:47;;;;;;;12.83;5.47;;;;;;;;;;5072646;28;20298;-80
2023/10/23 02:26:14;;;;;;;14.47;5.87;;;;;;;;;;5072623;28;20205;-80
2023/10/23 02:28:41;;;;;;;7.90;5.70;;;;;;;;;;5072740;28;20200;-81
2023/10/23 02:31:08;;;;;;;9.33;6.23;;;;;;;;;;5072666;28;20686;-80
2023/10/23 02:33:36;;;;;;;9.20;5.23;;;;;;;;;;5072058;28;20212;-80
2023/10/23 02:36:04;;;;;;;10.50;5.17;;;;;;;;;;5072454;28;20212;-80
2023/10/23 02:38:32;;;;;;;10.07;6.33;;;;;;;;;;5071971;28;20259;-80
2023/10/23 02:40:59;;;;;;;9.60;5.13;;;;;;;;;;5071290;28;20209;-81
2023/10/23 02:43:26;;;;;;;11.77;5.73;;;;;;;;;;5071951;28;20236;-80
2023/10/23 02:45:53;;;;;;;12.03;5.87;;;;;;;;;;5072431;28;20206;-81
2023/10/23 02:48:20;;;;;;;11.37;5.60;;;;;;;;;;5072393;28;20199;-81
2023/10/23 02:50:53;;;;;;;9.87;5.90;;;;;;;;;;5072259;28;20237;-80
2023/10/23 02:53:21;;;;;;;9.80;5.53;;;;;;;;;;5072068;28;20562;-80
2023/10/23 02:55:48;;;;;;;14.73;5.73;;;;;;;;;;5071854;28;20200;-80
2023/10/23 02:58:17;;;;;;;10.13;5.83;;;;;;;;;;5072075;28;20211;-80
2023/10/23 03:00:43;;;;;;;10.30;5.73;;;;;;;;;;5071796;28;20209;-80
2023/10/23 03:03:11;;;;;;;12.13;6.10;;;;;;;;;;5071979;28;20228;-80
2023/10/23 03:05:38;;;;;;;10.50;5.70;;;;;;;;;;5071522;28;20208;-80
2023/10/23 03:08:06;;;;;;;21.33;9.87;;;;;;;;;;5071642;28;20295;-80
2023/10/23 03:10:34;;;;;;;9.37;5.57;;;;;;;;;;5071670;28;20208;-81
2023/10/23 03:13:02;;;;;;;9.27;5.47;;;;;;;;;;5071454;28;20670;-80
2023/10/23 03:15:29;;;;;;;8.57;4.97;;;;;;;;;;5071836;28;20255;-81
2023/10/23 03:17:56;;;;;;;11.83;5.87;;;;;;;;;;5071433;28;20215;-80
2023/10/23 03:20:23;;;;;;;11.27;5.37;;;;;;;;;;5071466;28;20273;-80
2023/10/23 03:22:50;;;;;;;8.00;5.17;;;;;;;;;;5071794;28;20270;-80
2023/10/23 03:25:17;;;;;;;8.27;5.33;;;;;;;;;;5071341;28;20228;-81
2023/10/23 03:27:45;;;;;;;9.90;8.90;;;;;;;;;;5071037;28;20206;-81
2023/10/23 03:30:12;;;;;;;14.33;6.23;;;;;;;;;;5071496;28;20207;-80
2023/10/23 03:32:39;;;;;;;12.53;7.17;;;;;;;;;;5071617;28;20209;-80
2023/10/23 03:35:06;;;;;;;13.30;6.33;;;;;;;;;;5071499;28;20197;-80
2023/10/23 03:37:33;;;;;;;14.03;7.47;;;;;;;;;;5071076;28;20204;-80
2023/10/23 03:40:00;;;;;;;8.40;5.40;;;;;;;;;;5070880;28;20199;-80
2023/10/23 03:42:27;;;;;;;11.33;6.30;;;;;;;;;;5058364;28;20219;-81
2023/10/23 03:44:55;;;;;;;11.33;6.00;;;;;;;;;;5063944;28;20286;-80
2023/10/23 03:47:21;;;;;;;9.30;5.67;;;;;;;;;;5066457;28;20223;-80
2023/10/23 03:49:48;;;;;;;8.77;5.63;;;;;;;;;;5070284;28;20216;-80
2023/10/23 03:52:15;;;;;;;6.83;5.03;;;;;;;;;;5059223;28;20200;-80
2023/10/23 03:54:42;;;;;;;12.33;6.00;;;;;;;;;;5051710;28;20209;-80
2023/10/23 03:57:09;;;;;;;9.43;5.13;;;;;;;;;;5051627;28;20200;-80
2023/10/23 03:59:35;;;;;;;9.43;5.63;;;;;;;;;;5051377;28;20213;-80
2023/10/23 04:02:04;;;;;;;13.73;7.33;;;;;;;;;;5051579;28;20232;-80
2023/10/23 04:04:30;;;;;;;12.17;6.33;;;;;;;;;;5051036;28;20228;-80
2023/10/23 04:06:57;;;;;;;10.30;5.33;;;;;;;;;;5063169;28;20254;-80
2023/10/23 04:09:24;;;;;;;8.97;5.70;;;;;;;;;;5069048;28;20216;-80
2023/10/23 04:11:51;;;;;;;10.20;5.53;;;;;;;;;;5070988;28;20204;-80
2023/10/23 04:14:18;;;;;;;9.10;4.93;;;;;;;;;;5070156;28;20201;-79
2023/10/23 04:16:44;;;;;;;10.80;5.67;;;;;;;;;;5070658;28;20216;-79
2023/10/23 04:19:14;;;;;;;8.73;5.60;;;;;;;;;;5070762;28;20235;-80
2023/10/23 04:21:40;;;;;;;12.80;6.47;;;;;;;;;;5070652;28;20197;-79
2023/10/23 04:24:09;;;;;;;16.17;6.07;;;;;;;;;;5041493;28;20236;-80
2023/10/23 04:26:36;;;;;;;13.97;6.30;;;;;;;;;;5058916;28;20207;-79
2023/10/23 04:29:03;;;;;;;14.30;8.03;;;;;;;;;;5070278;28;20262;-78
2023/10/23 04:31:30;;;;;;;12.60;5.90;;;;;;;;;;5069841;28;20203;-79
2023/10/23 04:33:57;;;;;;;9.77;6.20;;;;;;;;;;5057005;28;20589;-77
2023/10/23 04:36:25;;;;;;;12.83;4.67;;;;;;;;;;5056907;28;20211;-78
2023/10/23 04:38:51;;;;;;;12.80;6.57;;;;;;;;;;5070455;28;20205;-78
2023/10/23 04:41:20;;;;;;;10.17;6.03;;;;;;;;;;5069673;28;20204;-78
2023/10/23 04:43:47;;;;;;;10.70;5.63;;;;;;;;;;5070482;28;20305;-78
2023/10/23 04:46:13;;;;;;;10.50;5.80;;;;;;;;;;5069824;28;20204;-78
2023/10/23 04:48:40;;;;;;;9.67;5.23;;;;;;;;;;5070030;28;20205;-78
2023/10/23 04:51:07;;;;;;;12.17;6.50;;;;;;;;;;5069002;28;20240;-79
2023/10/23 04:53:34;;;;;;;12.70;5.87;;;;;;;;;;5068604;28;20203;-78
2023/10/23 04:56:05;;;;;;;9.97;6.23;;;;;;;;;;5057178;28;20223;-78
2023/10/23 04:58:31;;;;;;;11.03;5.30;;;;;;;;;;5069094;28;20219;-78
2023/10/23 05:00:58;;;;;;;9.60;5.60;;;;;;;;;;5068784;28;20689;-78
2023/10/23 05:03:25;;;;;;;8.37;5.53;;;;;;;;;;5068426;28;20608;-78
2023/10/23 05:05:52;;;;;;;14.77;6.63;;;;;;;;;;5060232;28;20666;-78
2023/10/23 05:08:19;;;;;;;10.87;5.27;;;;;;;;;;5063710;28;20735;-79
2023/10/23 05:10:47;;;;;;;11.83;6.57;;;;;;;;;;5061670;28;20223;-78
2023/10/23 05:13:13;;;;;;;17.80;7.07;;;;;;;;;;5067372;28;20199;-79
2023/10/23 05:15:40;;;;;;;9.67;5.73;;;;;;;;;;5048486;28;20204;-77
2023/10/23 05:18:07;;;;;;;9.83;5.47;;;;;;;;;;5061520;28;20669;-76
2023/10/23 05:20:35;;;;;;;19.90;5.97;;;;;;;;;;5069160;28;20223;-79
2023/10/23 05:23:03;;;;;;;13.13;5.53;;;;;;;;;;5073660;28;20201;-79
2023/10/23 05:25:29;;;;;;;9.77;6.67;;;;;;;;;;5074306;28;20313;-79
2023/10/23 05:27:58;;;;;;;10.60;6.00;;;;;;;;;;5060199;28;20212;-79
2023/10/23 05:30:26;;;;;;;12.07;7.40;;;;;;;;;;5074246;28;20660;-78
2023/10/23 05:32:53;;;;;;;15.97;7.37;;;;;;;;;;5071358;28;20225;-79
2023/10/23 05:35:20;;;;;;;11.03;7.10;;;;;;;;;;5070839;28;20200;-79
2023/10/23 05:37:47;;;;;;;12.93;5.73;;;;;;;;;;5060581;28;20237;-80
2023/10/23 05:40:14;;;;;;;20.43;6.73;;;;;;;;;;5048144;28;20618;-78
2023/10/23 05:42:41;;;;;;;15.43;8.93;;;;;;;;;;5073221;28;20205;-78
2023/10/23 05:45:10;;;;;;;23.53;7.60;;;;;;;;;;5073425;28;20234;-78
2023/10/23 05:47:37;;;;;;;26.93;7.60;;;;;;;;;;5061885;28;20215;-78
2023/10/23 05:50:05;;;;;;;16.67;7.17;;;;;;;;;;5040724;28;20692;-78
2023/10/23 05:52:33;;;;;;;23.87;7.70;;;;;;;;;;5053082;28;20209;-78
2023/10/23 05:55:04;;;;;;;14.57;6.40;;;;;;;;;;5053520;28;20213;-77
2023/10/23 05:57:31;;;;;;;12.67;5.93;;;;;;;;;;5059755;28;20205;-78
2023/10/23 05:59:58;;;;;;;9.37;5.60;;;;;;;;;;5052508;28;20267;-83
2023/10/23 06:02:26;;;;;;;16.23;6.17;;;;;;;;;;5065130;28;20201;-80
2023/10/23 06:04:53;;;;;;;11.43;5.90;;;;;;;;;;5060862;28;20223;-79
2023/10/23 06:07:19;;;;;;;11.07;5.73;;;;;;;;;;5065292;28;20201;-77
2023/10/23 06:09:46;;;;;;;7.90;4.97;;;;;;;;;;5068643;28;20209;-78
2023/10/23 06:12:14;;;;;;;10.33;6.10;;;;;;;;;;5065901;28;20202;-81
2023/10/23 06:14:41;;;;;;;9.33;5.57;;;;;;;;;;5072584;28;20288;-82
2023/10/23 06:17:09;;;;;;;13.20;5.83;;;;;;;;;;5067847;28;20205;-88
2023/10/23 06:19:37;;;;;;;12.83;5.97;;;;;;;;;;5070269;28;20200;-86
2023/10/23 06:22:04;;;;;;;11.90;6.40;;;;;;;;;;5070121;28;20244;-78
2023/10/23 06:24:31;;;;;;;19.10;6.83;;;;;;;;;;5068184;28;20221;-75
2023/10/23 06:26:58;;;;;;;17.77;7.07;;;;;;;;;;5048410;28;20547;-79
2023/10/23 06:29:25;;;;;;;16.53;8.13;;;;;;;;;;5068922;28;20675;-79
2023/10/23 06:31:52;;;;;;;13.73;6.80;;;;;;;;;;5071147;28;20201;-79
2023/10/23 06:34:18;;;;;;;18.63;7.10;;;;;;;;;;5068642;28;20206;-81
2023/10/23 06:36:47;;;;;;;14.63;6.90;;;;;;;;;;5071153;28;20205;-82
2023/10/23 06:39:13;;;;;;;9.90;5.67;;;;;;;;;;5070278;28;20214;-81
2023/10/23 06:41:40;;;;;;;17.83;6.83;;;;;;;;;;5071890;28;20212;-86
2023/10/23 06:44:07;;;;;;;13.43;6.00;;;;;;;;;;5072128;28;20208;-82
2023/10/23 06:46:34;;;;;;;11.30;5.50;;;;;;;;;;5072541;28;20212;-86
2023/10/23 06:49:00;;;;;;;17.83;7.70;;;;;;;;;;5072026;28;20216;-79
2023/10/23 06:51:27;;;;;;;23.60;7.03;;;;;;;;;;5054104;28;20724;-79
2023/10/23 06:53:55;;;;;;;21.17;8.00;;;;;;;;;;5052607;28;20198;-77
2023/10/23 06:56:22;;;;;;;23.50;7.03;;;;;;;;;;5066292;28;20197;-79
2023/10/23 06:58:49;;;;;;;23.73;7.27;;;;;;;;;;5044083;28;20600;-76
2023/10/23 07:01:16;;;;;;;18.67;6.33;;;;;;;;;;5051504;28;20676;-81
2023/10/23 07:03:43;;;;;;;16.97;5.83;;;;;;;;;;5071447;28;20200;-83
2023/10/23 07:06:10;;;;;;;16.77;5.70;;;;;;;;;;5064617;28;20229;-80
2023/10/23 07:08:39;;;;;;;25.90;7.13;;;;;;;;;;5063704;28;20198;-79
2023/10/23 07:11:14;;;;;;;20.43;7.50;;;;;;;;;;5066096;28;20228;-77
2023/10/23 07:13:41;;;;;;;24.70;6.80;;;;;;;;;;5063773;28;20205;-77
2023/10/23 07:16:09;;;;;;;19.40;5.90;;;;;;;;;;5071269;28;20201;-77
2023/10/23 07:18:35;;;;;;;22.93;7.13;;;;;;;;;;5071250;28;20201;-76
2023/10/23 07:21:03;;;;;;;22.00;6.30;;;;;;;;;;5071319;28;20205;-77
2023/10/23 07:23:30;;;;;;;20.90;6.47;;;;;;;;;;5070684;28;20659;-77
2023/10/23 07:26:07;;;;;;;20.10;7.13;;;;;;;;;;5059453;28;20230;-76
2023/10/23 07:28:36;;;;;;;27.80;9.50;;;;;;;;;;5060458;28;20588;-77
2023/10/23 07:31:04;;;;;;;21.33;6.63;;;;;;;;;;5056223;28;20235;-77
2023/10/23 07:33:30;;;;;;;24.27;6.07;;;;;;;;;;5070933;28;20274;-77
2023/10/23 07:36:05;;;;;;;21.60;7.77;;;;;;;;;;5063439;28;20256;-77
2023/10/23 07:38:32;;;;;;;17.83;5.57;;;;;;;;;;5062321;28;20197;-78
2023/10/23 07:40:59;;;;;;;12.97;5.20;;;;;;;;;;5047472;28;20209;-78
2023/10/23 07:43:26;;;;;;;19.40;6.07;;;;;;;;;;5051220;28;20612;-78
2023/10/23 07:45:54;;;;;;;12.13;5.90;;;;;;;;;;5052501;28;20229;-77
2023/10/23 07:48:22;;;;;;;10.83;5.07;;;;;;;;;;5064759;28;20641;-78
2023/10/23 07:50:49;;;;;;;15.90;5.40;;;;;;;;;;5056483;28;20229;-77
2023/10/23 07:53:15;;;;;;;15.10;5.20;;;;;;;;;;5062737;28;20208;-80
2023/10/23 07:55:42;;;;;;;14.27;5.97;;;;;;;;;;5063611;28;20565;-76
2023/10/23 07:58:09;;;;;;;14.57;5.50;;;;;;;;;;5062942;28;20201;-78
2023/10/23 08:00:36;;;;;;;15.87;5.43;;;;;;;;;;5070300;28;20204;-78
2023/10/23 08:03:04;;;;;;;26.50;7.10;;;;;;;;;;5068844;28;20201;-82
2023/10/23 08:05:31;;;;;;;15.53;6.30;;;;;;;;;;5070115;28;20236;-78
2023/10/23 08:07:58;;;;;;;18.93;4.70;;;;;;;;;;5069883;28;20200;-78
2023/10/23 08:10:25;;;;;;;12.10;5.27;;;;;;;;;;5069421;28;20229;-76
2023/10/23 08:12:52;;;;;;;7.70;4.80;;;;;;;;;;5069407;28;20212;-78
2023/10/23 08:15:19;;;;;;;20.00;6.17;;;;;;;;;;5069489;28;20699;-78
2023/10/23 08:17:45;;;;;;;12.13;5.23;;;;;;;;;;5068623;28;20205;-77
2023/10/23 08:20:14;;;;;;;17.10;5.50;;;;;;;;;;5051103;28;20202;-77
2023/10/23 08:22:40;;;;;;;16.77;5.70;;;;;;;;;;5069591;28;20204;-78
2023/10/23 08:25:08;;;;;;;9.63;4.93;;;;;;;;;;5057996;28;20229;-78
2023/10/23 08:27:34;;;;;;;14.67;6.17;;;;;;;;;;5069456;28;20201;-77
2023/10/23 08:30:02;;;;;;;18.93;5.57;;;;;;;;;;5069023;28;20193;-77
2023/10/23 08:32:29;;;;;;;21.60;5.83;;;;;;;;;;5069802;28;20208;-78
2023/10/23 08:34:56;;;;;;;14.23;5.47;;;;;;;;;;5068815;28;20240;-78
2023/10/23 08:37:24;;;;;;;10.80;4.40;;;;;;;;;;5057435;28;20201;-79
2023/10/23 08:39:51;;;;;;;14.97;4.87;;;;;;;;;;5067199;28;20209;-77
2023/10/23 08:42:17;;;;;;;26.47;6.20;;;;;;;;;;5069686;28;20201;-77
2023/10/23 08:44:45;;;;;;;12.10;5.40;;;;;;;;;;5069224;28;20209;-77
2023/10/23 08:47:12;;;;;;;10.00;4.63;;;;;;;;;;5068812;28;20595;-77
2023/10/23 08:49:39;;;;;;;15.20;5.93;;;;;;;;;;5026626;28;1221271;-82
2023/10/23 08:52:10;;;;;;;7.17;4.50;;;;;;;;;;5065456;28;20212;-83
2023/10/23 08:54:39;;;;;;;16.40;4.97;;;;;;;;;;5069929;28;20209;-77
2023/10/23 08:57:07;;;;;;;15.10;5.30;;;;;;;;;;5069101;28;20201;-79
2023/10/23 08:59:34;;;;;;;22.03;5.10;;;;;;;;;;5060047;28;20676;-79
2023/10/23 09:02:01;;;;;;;18.97;5.67;;;;;;;;;;5069802;28;20266;-80
2023/10/23 09:04:28;;;;;;;16.17;4.93;;;;;;;;;;5070101;28;20215;-80
2023/10/23 09:06:56;;;;;;;14.20;4.23;;;;;;;;;;5067017;28;20661;-79
2023/10/23 09:09:23;;;;;;;21.80;6.47;;;;;;;;;;5063808;28;20200;-77
2023/10/23 09:11:52;;;;;;;17.57;5.20;;;;;;;;;;5070246;28;20216;-78
2023/10/23 09:14:30;;;;;;;20.40;5.93;;;;;;;;;;5070445;28;20282;-78
2023/10/23 09:16:59;;;;;;;22.60;4.70;;;;;;;;;;5063844;28;20354;-77
2023/10/23 09:19:27;;;;;;;18.57;5.50;;;;;;;;;;5068198;28;20228;-78
2023/10/23 09:21:55;;;;;;;15.40;5.37;;;;;;;;;;5070198;28;20205;-78
2023/10/23 09:24:22;;;;;;;15.17;5.40;;;;;;;;;;5069656;28;20636;-78
2023/10/23 09:26:51;;;;;;;17.27;5.87;;;;;;;;;;5069711;28;20260;-78
2023/10/23 09:29:22;;;;;;;19.60;5.37;;;;;;;;;;5068107;28;20194;-78
2023/10/23 09:31:49;;;;;;;17.97;5.47;;;;;;;;;;5069926;28;20197;-78
2023/10/23 09:34:18;;;;;;;19.23;5.60;;;;;;;;;;5069026;28;20697;-78
2023/10/23 09:36:45;;;;;;;15.23;5.17;;;;;;;;;;5068956;28;20609;-78
2023/10/23 09:39:12;;;;;;;14.87;4.97;;;;;;;;;;5069016;28;20197;-78
2023/10/23 09:41:38;;;;;;;16.25;5.70;;;;;;;;;;5068949;28;20216;-78
2023/10/23 09:44:08;;;;;;;16.50;5.23;;;;;;;;;;5068589;28;20710;-78
2023/10/23 09:46:35;;;;;;;15.63;4.75;;;;;;;;;;5068750;28;20730;-78
2023/10/23 09:49:03;;;;;;;25.87;6.20;;;;;;;;;;5069712;28;20201;-78
2023/10/23 09:51:36;;;;;;;14.68;5.32;;;;;;;;;;5067414;28;20206;-78
2023/10/23 09:54:15;;;;;;;17.17;6.13;;;;;;;;;;5066870;28;20201;-78
2023/10/23 09:56:47;;;;;;;14.50;6.13;;;;;;;;;;5073308;28;20648;-78
2023/10/23 09:59:17;;;;;;;23.90;4.95;;;;;;;;;;5072821;28;20201;-79
2023/10/23 10:01:44;;;;;;;14.73;5.30;;;;;;;;;;5072956;28;20299;-78
2023/10/23 10:04:14;;;;;;;11.93;4.82;;;;;;;;;;5072737;28;20197;-78
2023/10/23 10:06:43;;;;;;;19.45;5.15;;;;;;;;;;5072680;28;20225;-78
2023/10/23 10:09:12;;;;;;;14.93;6.07;;;;;;;;;;5072930;28;20189;-78
2023/10/23 10:11:42;;;;;;;16.67;5.50;;;;;;;;;;5073430;28;21262;-78
2023/10/23 10:14:09;;;;;;;14.00;5.00;;;;;;;;;;5073049;28;20259;-78
2023/10/23 10:16:37;;;;;;;11.27;4.35;;;;;;;;;;5073316;28;20266;-78
2023/10/23 10:19:04;;;;;;;16.35;6.47;;;;;;;;;;5072591;28;20583;-78
2023/10/23 10:21:31;;;;;;;14.48;5.90;;;;;;;;;;5072650;28;20648;-78
2023/10/23 10:24:00;;;;;;;13.60;5.28;;;;;;;;;;5072815;28;20201;-78
2023/10/23 10:26:27;;;;;;;11.68;5.90;;;;;;;;;;5072431;28;20260;-78
2023/10/23 10:28:53;;;;;;;19.65;6.55;;;;;;;;;;5071661;28;20197;-78
2023/10/23 10:31:22;;;;;;;18.58;7.53;;;;;;;;;;5072996;28;20591;-78
2023/10/23 10:33:51;;;;;;;13.80;5.93;;;;;;;;;;5072243;28;20198;-78
2023/10/23 10:36:18;;;;;;;13.00;6.35;;;;;;;;;;5072253;28;20208;-78
2023/10/23 10:38:46;;;;;;;18.48;5.43;;;;;;;;;;5073070;28;20205;-77
2023/10/23 10:41:17;;;;;;;15.13;5.97;;;;;;;;;;5072837;28;20634;-78
2023/10/23 10:43:45;;;;;;;17.27;6.35;;;;;;;;;;5072237;28;20255;-78
2023/10/23 10:46:15;;;;;;;15.90;6.22;;;;;;;;;;5071864;28;20221;-78
2023/10/23 10:48:43;;;;;;;14.48;6.25;;;;;;;;;;5072496;28;20274;-77
2023/10/23 10:51:14;;;;;;;15.95;5.57;;;;;;;;;;5072307;28;20224;-78
2023/10/23 10:53:41;;;;;;;19.50;6.10;;;;;;;;;;5072501;28;20213;-77
2023/10/23 10:56:09;;;;;;;15.45;5.68;;;;;;;;;;5071742;28;20212;-77
2023/10/23 10:58:38;;;;;;;17.75;6.70;;;;;;;;;;5071611;28;20618;-78
2023/10/23 11:01:04;;;;;;;14.95;5.65;;;;;;;;;;5071061;28;20201;-77
2023/10/23 11:03:34;;;;;;;16.08;5.72;;;;;;;;;;5072141;28;20675;-78
2023/10/23 11:06:01;;;;;;;11.02;5.80;;;;;;;;;;5071533;28;20224;-78
2023/10/23 11:08:29;;;;;;;10.60;6.25;;;;;;;;;;5072003;28;20208;-78
2023/10/23 11:10:56;;;;;;;16.70;7.13;;;;;;;;;;5071727;28;20203;-78
2023/10/23 11:13:23;;;;;;;12.00;6.78;;;;;;;;;;5060278;28;20284;-78
2023/10/23 11:15:55;;;;;;;19.83;5.65;;;;;;;;;;5071025;28;20200;-78
2023/10/23 11:18:22;;;;;;;13.80;5.53;;;;;;;;;;5071395;28;20204;-79
2023/10/23 11:20:49;;;;;;;16.38;6.93;;;;;;;;;;5072050;28;20201;-78
2023/10/23 11:23:16;;;;;;;10.32;5.75;;;;;;;;;;5071423;28;20239;-78
2023/10/23 11:25:48;;;;;;;22.55;7.18;;;;;;;;;;5071892;28;20200;-77
2023/10/23 11:28:17;;;;;;;21.25;7.15;;;;;;;;;;5070853;28;20208;-78
2023/10/23 11:30:48;;;;;;;15.95;6.65;;;;;;;;;;5071673;28;20197;-78
2023/10/23 11:33:16;;;;;;;17.98;5.78;;;;;;;;;;5071103;28;20209;-78
2023/10/23 11:35:43;;;;;;;14.27;4.85;;;;;;;;;;5062422;28;20734;-78
2023/10/23 11:38:13;;;;;;;13.38;6.13;;;;;;;;;;5066509;28;20671;-78
2023/10/23 11:40:42;;;;;;;17.45;6.97;;;;;;;;;;5071381;28;20228;-78
2023/10/23 11:43:11;;;;;;;18.35;5.50;;;;;;;;;;5070900;28;20208;-78
2023/10/23 11:45:39;;;;;;;12.00;5.40;;;;;;;;;;5070838;28;20219;-78
2023/10/23 11:48:07;;;;;;;12.70;5.78;;;;;;;;;;5070070;28;20745;-77
2023/10/23 11:50:35;;;;;;;18.95;7.78;;;;;;;;;;5071353;28;20225;-78
2023/10/23 11:53:03;;;;;;;14.32;6.00;;;;;;;;;;5070703;28;20748;-78
2023/10/23 11:55:30;;;;;;;23.95;7.45;;;;;;;;;;5071175;28;20233;-77
2023/10/23 11:57:57;;;;;;;11.52;5.55;;;;;;;;;;5070210;28;20197;-77
2023/10/23 12:00:25;;;;;;;16.08;5.40;;;;;;;;;;5071390;28;20204;-78
2023/10/23 12:02:52;;;;;;;22.23;6.22;;;;;;;;;;5070512;28;20258;-78
2023/10/23 12:05:21;;;;;;;16.00;6.50;;;;;;;;;;5071015;28;20209;-78
2023/10/23 12:07:50;;;;;;;13.15;5.55;;;;;;;;;;5070375;28;20252;-78
2023/10/23 12:10:18;;;;;;;16.40;5.50;;;;;;;;;;5070749;28;20607;-78
2023/10/23 12:12:45;;;;;;;18.67;5.80;;;;;;;;;;5070487;28;20197;-78
2023/10/23 12:15:13;;;;;;;15.13;6.18;;;;;;;;;;5070955;28;20213;-78
2023/10/23 12:17:42;;;;;;;14.88;5.88;;;;;;;;;;5070487;28;20209;-77
2023/10/23 12:20:10;;;;;;;17.52;6.25;;;;;;;;;;5071094;28;20258;-78
2023/10/23 12:22:38;;;;;;;12.13;5.32;;;;;;;;;;5070856;28;20209;-77
2023/10/23 12:25:05;;;;;;;11.32;5.43;;;;;;;;;;5070590;28;20236;-77
2023/10/23 12:27:33;;;;;;;19.55;6.60;;;;;;;;;;5070699;28;20583;-77
2023/10/23 12:30:01;;;;;;;12.15;5.25;;;;;;;;;;5070423;28;20265;-78
2023/10/23 12:32:28;;;;;;;20.58;5.47;;;;;;;;;;5070546;28;20745;-77
2023/10/23 12:34:57;;;;;;;18.88;6.28;;;;;;;;;;5070330;28;20204;-78
2023/10/23 12:37:26;;;;;;;13.18;4.57;;;;;;;;;;5070643;28;20212;-78
2023/10/23 12:39:52;;;;;;;21.85;6.40;;;;;;;;;;5070684;28;20681;-77
2023/10/23 12:42:20;;;;;;;15.00;5.90;;;;;;;;;;5059360;28;20217;-77
2023/10/23 12:44:47;;;;;;;13.45;5.00;;;;;;;;;;5069060;28;20220;-77
2023/10/23 12:47:14;;;;;;;13.40;4.80;;;;;;;;;;5070629;28;20228;-78
2023/10/23 12:49:41;;;;;;;15.88;5.47;;;;;;;;;;5070578;28;20231;-77
2023/10/23 12:52:09;;;;;;;15.63;4.85;;;;;;;;;;5070096;28;20227;-78
2023/10/23 12:54:36;;;;;;;15.52;5.50;;;;;;;;;;5070214;28;20205;-77
2023/10/23 12:57:03;;;;;;;16.27;5.93;;;;;;;;;;5069816;28;20200;-78
2023/10/23 12:59:31;;;;;;;13.98;5.30;;;;;;;;;;5069727;28;20296;-78
2023/10/23 13:01:58;;;;;;;22.60;6.18;;;;;;;;;;5070299;28;20201;-78
2023/10/23 13:04:24;;;;;;;17.42;6.78;;;;;;;;;;5069878;28;20197;-77
2023/10/23 13:06:52;;;;;;;19.92;6.30;;;;;;;;;;5070356;28;20229;-77
2023/10/23 13:09:20;;;;;;;16.83;5.15;;;;;;;;;;5069765;28;20197;-78
2023/10/23 13:11:47;;;;;;;19.52;5.82;;;;;;;;;;5070012;28;20212;-78
2023/10/23 13:14:14;;;;;;;20.13;5.65;;;;;;;;;;5070150;28;20201;-77
2023/10/23 13:16:41;;;;;;;18.00;6.28;;;;;;;;;;5069905;28;20216;-77
2023/10/23 13:19:08;;;;;;;18.30;5.38;;;;;;;;;;5070015;28;20197;-77
2023/10/23 13:21:35;;;;;;;16.92;5.80;;;;;;;;;;5070411;28;20205;-78
2023/10/23 13:24:04;;;;;;;16.30;6.10;;;;;;;;;;5070141;28;20259;-77
2023/10/23 13:26:32;;;;;;;20.47;5.33;;;;;;;;;;5073442;28;20224;-77
2023/10/23 13:28:59;;;;;;;17.35;5.53;;;;;;;;;;5073616;28;20197;-77
2023/10/23 13:31:27;;;;;;;19.58;6.22;;;;;;;;;;5074027;28;20212;-77
2023/10/23 13:33:53;;;;;;;12.40;5.07;;;;;;;;;;5073666;28;20201;-77
2023/10/23 13:36:20;;;;;;;21.33;6.10;;;;;;;;;;5073795;28;20587;-78
2023/10/23 13:38:47;;;;;;;11.15;5.88;;;;;;;;;;5073697;28;20223;-78
2023/10/23 13:41:14;;;;;;;16.52;5.05;;;;;;;;;;5073862;28;20200;-79
2023/10/23 13:43:42;;;;;;;12.63;5.78;;;;;;;;;;5047242;28;20201;-78
2023/10/23 13:46:09;;;;;;;17.13;5.75;;;;;;;;;;5073134;28;20282;-78
2023/10/23 13:48:35;;;;;;;18.27;5.25;;;;;;;;;;5073512;28;20231;-78
2023/10/23 13:51:03;;;;;;;12.10;5.40;;;;;;;;;;5073534;28;20229;-78
2023/10/23 13:53:30;;;;;;;15.75;6.15;;;;;;;;;;5072924;28;20201;-79
2023/10/23 13:55:57;;;;;;;23.00;7.35;;;;;;;;;;5073312;28;20586;-78
2023/10/23 13:58:24;;;;;;;14.50;5.40;;;;;;;;;;5073496;28;20625;-78
2023/10/23 14:00:52;;;;;;;16.45;6.10;;;;;;;;;;5073136;28;20206;-78
2023/10/23 14:03:19;;;;;;;16.40;6.27;;;;;;;;;;5073060;28;20816;-78
2023/10/23 14:05:46;;;;;;;14.10;6.70;;;;;;;;;;5070824;28;20241;-78
2023/10/23 14:08:13;;;;;;;13.65;5.53;;;;;;;;;;5062520;28;20737;-78
2023/10/23 14:10:40;;;;;;;14.40;5.72;;;;;;;;;;5073078;28;20205;-78
2023/10/23 14:13:07;;;;;;;21.75;6.32;;;;;;;;;;5073069;28;20202;-78
2023/10/23 14:15:33;;;;;;;18.33;7.60;;;;;;;;;;5072684;28;20255;-78
2023/10/23 14:18:02;;;;;;;11.90;6.33;;;;;;;;;;5072717;28;20671;-79
2023/10/23 14:20:29;;;;;;;13.57;6.20;;;;;;;;;;5072437;28;20794;-79
2023/10/23 14:22:55;;;;;;;19.60;6.57;;;;;;;;;;5072839;28;20671;-78
2023/10/23 14:25:22;;;;;;;17.88;7.10;;;;;;;;;;5072949;28;20201;-79
2023/10/23 14:27:49;;;;;;;17.08;7.18;;;;;;;;;;5072467;28;20225;-79
2023/10/23 14:30:16;;;;;;;17.00;6.00;;;;;;;;;;5072610;28;20197;-79
2023/10/23 14:32:43;;;;;;;21.77;6.97;;;;;;;;;;5072546;28;20209;-79
2023/10/23 14:35:11;;;;;;;19.67;6.90;;;;;;;;;;5068181;28;20244;-77